sensor_id;sensor_type;location;lat;lon;timestamp;temperature;humidity
2030;DHT22;1020;48.854;8.830;2023-09-07T00:02:25;16.30;99.90
2030;DHT22;1020;48.854;8.830;2023-09-07T00:04:52;16.20;99.90
2030;DHT22;1020;48.854;8.830;2023-09-07T00:07:20;16.20;1.00
2030;DHT22;1020;48.854;8.830;2023-09-07T00:09:46;16.20;99.90
2030;DHT22;1020;48.854;8.830;2023-09-07T00:12:13;16.20;99.90
2030;DHT22;1020;48.854;8.830;2023-09-07T00:14:40;13.90;99.90
2030;DHT22;1020;48.854;8.830;2023-09-07T00:17:07;16.00;99.90
2030;DHT22;1020;48.854;8.830;2023-09-07T00:19:33;16.00;1.00
2030;DHT22;1020;48.854;8.830;2023-09-07T00:22:02;16.00;1.00
2030;DHT22;1020;48.854;8.830;2023-09-07T00:24:31;15.90;1.00
2030;DHT22;1020;48.854;8.830;2023-09-07T00:26:58;15.90;1.00
2030;DHT22;1020;48.854;8.830;2023-09-07T00:29:24;14.20;1.00
2030;DHT22;1020;48.854;8.830;2023-09-07T00:31:51;15.80;1.00
2030;DHT22;1020;48.854;8.830;2023-09-07T00:34:18;15.80;1.00
2030;DHT22;1020;48.854;8.830;2023-09-07T00:36:45;15.70;1.00
2030;DHT22;1020;48.854;8.830;2023-09-07T00:39:11;15.70;1.00
2030;DHT22;1020;48.854;8.830;2023-09-07T00:41:39;15.70;1.00
2030;DHT22;1020;48.854;8.830;2023-09-07T00:44:06;15.70;1.00
2030;DHT22;1020;48.854;8.830;2023-09-07T00:46:33;15.70;1.00
2030;DHT22;1020;48.854;8.830;2023-09-07T00:49:00;15.70;1.00
2030;DHT22;1020;48.854;8.830;2023-09-07T00:51:27;15.70;1.00
2030;DHT22;1020;48.854;8.830;2023-09-07T00:53:54;15.60;1.00
2030;DHT22;1020;48.854;8.830;2023-09-07T00:56:21;15.60;1.00
2030;DHT22;1020;48.854;8.830;2023-09-07T00:58:49;15.50;1.00
2030;DHT22;1020;48.854;8.830;2023-09-07T01:01:16;15.50;1.00
2030;DHT22;1020;48.854;8.830;2023-09-07T01:03:43;15.40;1.00
2030;DHT22;1020;48.854;8.830;2023-09-07T01:06:19;15.30;1.00
2030;DHT22;1020;48.854;8.830;2023-09-07T01:08:51;15.30;5.20
2030;DHT22;1020;48.854;8.830;2023-09-07T01:11:19;15.20;9.00
2030;DHT22;1020;48.854;8.830;2023-09-07T01:13:49;15.20;5.10
2030;DHT22;1020;48.854;8.830;2023-09-07T01:16:17;15.20;13.40
2030;DHT22;1020;48.854;8.830;2023-09-07T01:18:45;15.10;19.70
2030;DHT22;1020;48.854;8.830;2023-09-07T01:21:13;15.10;24.30
2030;DHT22;1020;48.854;8.830;2023-09-07T01:23:42;15.10;24.60
2030;DHT22;1020;48.854;8.830;2023-09-07T01:26:10;15.00;26.30
2030;DHT22;1020;48.854;8.830;2023-09-07T01:28:37;15.00;29.50
2030;DHT22;1020;48.854;8.830;2023-09-07T01:31:04;14.90;36.60
2030;DHT22;1020;48.854;8.830;2023-09-07T01:33:32;14.90;42.50
2030;DHT22;1020;48.854;8.830;2023-09-07T01:35:59;14.80;50.60
2030;DHT22;1020;48.854;8.830;2023-09-07T01:38:25;14.80;51.80
2030;DHT22;1020;48.854;8.830;2023-09-07T01:40:53;14.80;59.50
2030;DHT22;1020;48.854;8.830;2023-09-07T01:43:20;14.70;56.40
2030;DHT22;1020;48.854;8.830;2023-09-07T01:45:47;14.70;70.80
2030;DHT22;1020;48.854;8.830;2023-09-07T01:48:14;14.70;75.10
2030;DHT22;1020;48.854;8.830;2023-09-07T01:50:41;14.70;77.70
2030;DHT22;1020;48.854;8.830;2023-09-07T01:53:08;14.70;77.70
2030;DHT22;1020;48.854;8.830;2023-09-07T01:55:35;14.70;74.90
2030;DHT22;1020;48.854;8.830;2023-09-07T01:58:03;14.70;72.20
2030;DHT22;1020;48.854;8.830;2023-09-07T02:00:30;14.60;73.80
2030;DHT22;1020;48.854;8.830;2023-09-07T02:02:58;14.60;77.20
2030;DHT22;1020;48.854;8.830;2023-09-07T02:05:25;14.50;82.60
2030;DHT22;1020;48.854;8.830;2023-09-07T02:07:52;14.50;86.10
2030;DHT22;1020;48.854;8.830;2023-09-07T02:10:19;14.50;84.80
2030;DHT22;1020;48.854;8.830;2023-09-07T02:12:46;14.50;86.10
2030;DHT22;1020;48.854;8.830;2023-09-07T02:15:14;14.50;82.70
2030;DHT22;1020;48.854;8.830;2023-09-07T02:17:41;14.40;92.70
2030;DHT22;1020;48.854;8.830;2023-09-07T02:20:10;14.40;92.00
2030;DHT22;1020;48.854;8.830;2023-09-07T02:22:37;14.40;87.10
2030;DHT22;1020;48.854;8.830;2023-09-07T02:25:05;14.40;82.30
2030;DHT22;1020;48.854;8.830;2023-09-07T02:27:32;14.40;75.60
2030;DHT22;1020;48.854;8.830;2023-09-07T02:29:59;14.40;67.60
2030;DHT22;1020;48.854;8.830;2023-09-07T02:32:27;14.40;71.80
2030;DHT22;1020;48.854;8.830;2023-09-07T02:34:53;14.30;85.30
2030;DHT22;1020;48.854;8.830;2023-09-07T02:37:20;14.30;90.00
2030;DHT22;1020;48.854;8.830;2023-09-07T02:39:47;14.30;87.70
2030;DHT22;1020;48.854;8.830;2023-09-07T02:42:14;14.30;85.90
2030;DHT22;1020;48.854;8.830;2023-09-07T02:44:40;14.30;88.30
2030;DHT22;1020;48.854;8.830;2023-09-07T02:47:07;14.20;92.20
2030;DHT22;1020;48.854;8.830;2023-09-07T02:49:35;14.20;93.70
2030;DHT22;1020;48.854;8.830;2023-09-07T02:52:02;14.30;93.70
2030;DHT22;1020;48.854;8.830;2023-09-07T02:54:29;14.20;92.90
2030;DHT22;1020;48.854;8.830;2023-09-07T02:56:56;14.20;94.50
2030;DHT22;1020;48.854;8.830;2023-09-07T02:59:22;14.30;94.00
2030;DHT22;1020;48.854;8.830;2023-09-07T03:01:49;14.30;91.70
2030;DHT22;1020;48.854;8.830;2023-09-07T03:04:16;14.20;89.40
2030;DHT22;1020;48.854;8.830;2023-09-07T03:06:44;14.30;85.90
2030;DHT22;1020;48.854;8.830;2023-09-07T03:09:11;14.20;83.70
2030;DHT22;1020;48.854;8.830;2023-09-07T03:11:38;14.20;84.20
2030;DHT22;1020;48.854;8.830;2023-09-07T03:14:04;14.20;78.70
2030;DHT22;1020;48.854;8.830;2023-09-07T03:16:31;14.20;75.60
2030;DHT22;1020;48.854;8.830;2023-09-07T03:18:58;14.20;71.90
2030;DHT22;1020;48.854;8.830;2023-09-07T03:21:25;14.20;73.70
2030;DHT22;1020;48.854;8.830;2023-09-07T03:23:56;14.10;72.90
2030;DHT22;1020;48.854;8.830;2023-09-07T03:26:23;14.10;68.40
2030;DHT22;1020;48.854;8.830;2023-09-07T03:28:50;14.10;66.90
2030;DHT22;1020;48.854;8.830;2023-09-07T03:31:17;14.10;67.50
2030;DHT22;1020;48.854;8.830;2023-09-07T03:33:43;14.10;69.00
2030;DHT22;1020;48.854;8.830;2023-09-07T03:36:10;14.10;70.20
2030;DHT22;1020;48.854;8.830;2023-09-07T03:38:39;14.10;71.70
2030;DHT22;1020;48.854;8.830;2023-09-07T03:41:07;14.10;75.70
2030;DHT22;1020;48.854;8.830;2023-09-07T03:43:34;14.00;78.00
2030;DHT22;1020;48.854;8.830;2023-09-07T03:46:01;14.10;82.20
2030;DHT22;1020;48.854;8.830;2023-09-07T03:48:28;14.10;79.70
2030;DHT22;1020;48.854;8.830;2023-09-07T03:50:55;14.00;78.90
2030;DHT22;1020;48.854;8.830;2023-09-07T03:53:21;14.00;81.50
2030;DHT22;1020;48.854;8.830;2023-09-07T03:55:48;14.10;78.50
2030;DHT22;1020;48.854;8.830;2023-09-07T03:58:16;14.10;77.20
2030;DHT22;1020;48.854;8.830;2023-09-07T04:00:44;14.10;78.70
2030;DHT22;1020;48.854;8.830;2023-09-07T04:03:11;14.00;78.20
2030;DHT22;1020;48.854;8.830;2023-09-07T04:05:38;16.00;75.10
2030;DHT22;1020;48.854;8.830;2023-09-07T04:08:05;14.10;66.60
2030;DHT22;1020;48.854;8.830;2023-09-07T04:10:32;14.00;64.30
2030;DHT22;1020;48.854;8.830;2023-09-07T04:12:59;14.00;59.70
2030;DHT22;1020;48.854;8.830;2023-09-07T04:15:27;14.00;64.80
2030;DHT22;1020;48.854;8.830;2023-09-07T04:17:54;13.90;70.00
2030;DHT22;1020;48.854;8.830;2023-09-07T04:20:21;13.90;70.30
2030;DHT22;1020;48.854;8.830;2023-09-07T04:22:49;13.90;72.60
2030;DHT22;1020;48.854;8.830;2023-09-07T04:25:16;13.90;72.10
2030;DHT22;1020;48.854;8.830;2023-09-07T04:27:43;13.90;72.30
2030;DHT22;1020;48.854;8.830;2023-09-07T04:30:10;14.00;75.60
2030;DHT22;1020;48.854;8.830;2023-09-07T04:32:37;14.00;76.50
2030;DHT22;1020;48.854;8.830;2023-09-07T04:35:05;14.00;71.80
2030;DHT22;1020;48.854;8.830;2023-09-07T04:37:32;14.10;72.40
2030;DHT22;1020;48.854;8.830;2023-09-07T04:39:59;14.10;70.00
2030;DHT22;1020;48.854;8.830;2023-09-07T04:42:26;14.10;59.60
2030;DHT22;1020;48.854;8.830;2023-09-07T04:44:53;14.10;54.50
2030;DHT22;1020;48.854;8.830;2023-09-07T04:47:20;14.00;59.10
2030;DHT22;1020;48.854;8.830;2023-09-07T04:49:50;14.00;71.40
2030;DHT22;1020;48.854;8.830;2023-09-07T04:52:17;14.10;74.40
2030;DHT22;1020;48.854;8.830;2023-09-07T04:54:44;14.10;70.20
2030;DHT22;1020;48.854;8.830;2023-09-07T04:57:11;14.10;64.90
2030;DHT22;1020;48.854;8.830;2023-09-07T04:59:37;14.20;60.00
2030;DHT22;1020;48.854;8.830;2023-09-07T05:02:04;14.10;58.60
2030;DHT22;1020;48.854;8.830;2023-09-07T05:04:31;14.10;60.40
2030;DHT22;1020;48.854;8.830;2023-09-07T05:06:59;14.10;57.10
2030;DHT22;1020;48.854;8.830;2023-09-07T05:09:26;14.10;54.90
2030;DHT22;1020;48.854;8.830;2023-09-07T05:11:55;14.10;56.60
2030;DHT22;1020;48.854;8.830;2023-09-07T05:14:22;14.20;58.50
2030;DHT22;1020;48.854;8.830;2023-09-07T05:16:49;14.20;57.80
2030;DHT22;1020;48.854;8.830;2023-09-07T05:19:16;14.30;56.90
2030;DHT22;1020;48.854;8.830;2023-09-07T05:21:43;14.40;91.70
2030;DHT22;1020;48.854;8.830;2023-09-07T05:24:13;14.50;77.20
2030;DHT22;1020;48.854;8.830;2023-09-07T05:26:40;14.60;48.40
2030;DHT22;1020;48.854;8.830;2023-09-07T05:29:07;14.70;42.10
2030;DHT22;1020;48.854;8.830;2023-09-07T05:31:34;14.70;41.40
2030;DHT22;1020;48.854;8.830;2023-09-07T05:34:01;14.90;36.90
2030;DHT22;1020;48.854;8.830;2023-09-07T05:36:29;15.00;31.40
2030;DHT22;1020;48.854;8.830;2023-09-07T05:38:56;15.10;11.70
2030;DHT22;1020;48.854;8.830;2023-09-07T05:41:24;15.20;3.80
2030;DHT22;1020;48.854;8.830;2023-09-07T05:43:51;15.30;1.00
2030;DHT22;1020;48.854;8.830;2023-09-07T05:46:18;15.50;1.00
2030;DHT22;1020;48.854;8.830;2023-09-07T05:48:45;15.60;1.00
2030;DHT22;1020;48.854;8.830;2023-09-07T05:51:12;15.70;1.00
2030;DHT22;1020;48.854;8.830;2023-09-07T05:53:39;15.80;1.00
2030;DHT22;1020;48.854;8.830;2023-09-07T05:56:06;15.70;1.00
2030;DHT22;1020;48.854;8.830;2023-09-07T05:58:34;15.80;1.00
2030;DHT22;1020;48.854;8.830;2023-09-07T06:01:01;15.90;1.00
2030;DHT22;1020;48.854;8.830;2023-09-07T06:03:28;16.00;1.00
2030;DHT22;1020;48.854;8.830;2023-09-07T06:05:54;16.10;1.00
2030;DHT22;1020;48.854;8.830;2023-09-07T06:08:21;16.20;1.00
2030;DHT22;1020;48.854;8.830;2023-09-07T06:10:48;16.40;1.00
2030;DHT22;1020;48.854;8.830;2023-09-07T06:13:15;16.50;1.00
2030;DHT22;1020;48.854;8.830;2023-09-07T06:15:43;16.70;1.00
2030;DHT22;1020;48.854;8.830;2023-09-07T06:18:09;16.80;1.00
2030;DHT22;1020;48.854;8.830;2023-09-07T06:20:36;17.00;1.00
2030;DHT22;1020;48.854;8.830;2023-09-07T06:23:03;17.10;1.00
2030;DHT22;1020;48.854;8.830;2023-09-07T06:25:30;17.20;1.00
2030;DHT22;1020;48.854;8.830;2023-09-07T06:27:57;17.30;99.90
2030;DHT22;1020;48.854;8.830;2023-09-07T06:30:23;17.30;99.90
2030;DHT22;1020;48.854;8.830;2023-09-07T06:32:51;17.50;99.90
2030;DHT22;1020;48.854;8.830;2023-09-07T06:35:19;17.60;99.90
2030;DHT22;1020;48.854;8.830;2023-09-07T06:37:45;17.60;99.90
2030;DHT22;1020;48.854;8.830;2023-09-07T06:40:12;17.60;99.90
2030;DHT22;1020;48.854;8.830;2023-09-07T06:42:41;17.60;99.90
2030;DHT22;1020;48.854;8.830;2023-09-07T06:45:08;17.80;99.90
2030;DHT22;1020;48.854;8.830;2023-09-07T06:47:35;17.90;99.90
2030;DHT22;1020;48.854;8.830;2023-09-07T06:50:05;18.00;72.30
2030;DHT22;1020;48.854;8.830;2023-09-07T06:52:32;18.10;16.40
2030;DHT22;1020;48.854;8.830;2023-09-07T06:54:58;18.20;1.00
2030;DHT22;1020;48.854;8.830;2023-09-07T06:57:25;18.50;1.00
2030;DHT22;1020;48.854;8.830;2023-09-07T06:59:52;18.80;99.90
2030;DHT22;1020;48.854;8.830;2023-09-07T07:02:19;19.30;1.00
2030;DHT22;1020;48.854;8.830;2023-09-07T07:04:46;19.90;99.90
2030;DHT22;1020;48.854;8.830;2023-09-07T07:07:14;20.70;1.00
2030;DHT22;1020;48.854;8.830;2023-09-07T07:09:40;21.20;99.90
2030;DHT22;1020;48.854;8.830;2023-09-07T07:12:07;21.60;99.90
2030;DHT22;1020;48.854;8.830;2023-09-07T07:14:34;22.20;99.90
2030;DHT22;1020;48.854;8.830;2023-09-07T07:17:01;22.40;99.90
2030;DHT22;1020;48.854;8.830;2023-09-07T07:19:30;22.90;99.90
2030;DHT22;1020;48.854;8.830;2023-09-07T07:21:57;22.60;99.90
2030;DHT22;1020;48.854;8.830;2023-09-07T07:24:25;22.70;99.90
2030;DHT22;1020;48.854;8.830;2023-09-07T07:26:51;22.80;99.90
2030;DHT22;1020;48.854;8.830;2023-09-07T07:29:18;23.30;99.90
2030;DHT22;1020;48.854;8.830;2023-09-07T07:31:45;23.30;99.90
2030;DHT22;1020;48.854;8.830;2023-09-07T07:34:12;23.60;99.90
2030;DHT22;1020;48.854;8.830;2023-09-07T07:36:39;23.80;99.90
2030;DHT22;1020;48.854;8.830;2023-09-07T07:39:06;23.80;99.90
2030;DHT22;1020;48.854;8.830;2023-09-07T07:41:35;23.80;99.90
2030;DHT22;1020;48.854;8.830;2023-09-07T07:44:03;23.90;99.90
2030;DHT22;1020;48.854;8.830;2023-09-07T07:46:30;24.30;99.90
2030;DHT22;1020;48.854;8.830;2023-09-07T07:48:57;24.60;99.90
2030;DHT22;1020;48.854;8.830;2023-09-07T07:51:23;24.90;99.90
2030;DHT22;1020;48.854;8.830;2023-09-07T07:53:53;25.00;99.90
2030;DHT22;1020;48.854;8.830;2023-09-07T07:56:20;24.00;99.90
2030;DHT22;1020;48.854;8.830;2023-09-07T07:58:48;24.60;99.90
2030;DHT22;1020;48.854;8.830;2023-09-07T08:01:16;24.30;99.90
2030;DHT22;1020;48.854;8.830;2023-09-07T08:03:43;24.50;99.90
2030;DHT22;1020;48.854;8.830;2023-09-07T08:06:09;24.90;99.90
2030;DHT22;1020;48.854;8.830;2023-09-07T08:08:37;24.90;99.90
2030;DHT22;1020;48.854;8.830;2023-09-07T08:11:04;24.90;99.90
2030;DHT22;1020;48.854;8.830;2023-09-07T08:13:31;24.60;99.90
2030;DHT22;1020;48.854;8.830;2023-09-07T08:16:00;24.60;99.90
2030;DHT22;1020;48.854;8.830;2023-09-07T08:18:26;25.40;99.90
2030;DHT22;1020;48.854;8.830;2023-09-07T08:20:53;26.30;99.90
2030;DHT22;1020;48.854;8.830;2023-09-07T08:23:20;26.40;99.90
2030;DHT22;1020;48.854;8.830;2023-09-07T08:25:47;26.10;99.90
2030;DHT22;1020;48.854;8.830;2023-09-07T08:28:14;26.00;99.90
2030;DHT22;1020;48.854;8.830;2023-09-07T08:30:43;26.90;99.90
2030;DHT22;1020;48.854;8.830;2023-09-07T08:33:11;28.10;99.90
2030;DHT22;1020;48.854;8.830;2023-09-07T08:35:38;28.10;97.80
2030;DHT22;1020;48.854;8.830;2023-09-07T08:38:09;28.40;97.30
2030;DHT22;1020;48.854;8.830;2023-09-07T08:40:37;28.70;96.30
2030;DHT22;1020;48.854;8.830;2023-09-07T08:43:08;28.70;95.10
2030;DHT22;1020;48.854;8.830;2023-09-07T08:45:42;29.30;93.60
2030;DHT22;1020;48.854;8.830;2023-09-07T08:48:15;29.00;92.00
2030;DHT22;1020;48.854;8.830;2023-09-07T08:50:45;29.50;91.80
2030;DHT22;1020;48.854;8.830;2023-09-07T08:53:17;29.60;90.90
2030;DHT22;1020;48.854;8.830;2023-09-07T08:55:44;29.60;91.60
2030;DHT22;1020;48.854;8.830;2023-09-07T08:58:11;29.60;90.10
2030;DHT22;1020;48.854;8.830;2023-09-07T09:00:38;29.10;90.10
2030;DHT22;1020;48.854;8.830;2023-09-07T09:03:09;28.90;89.30
2030;DHT22;1020;48.854;8.830;2023-09-07T09:05:39;29.00;90.10
2030;DHT22;1020;48.854;8.830;2023-09-07T09:08:06;29.70;88.30
2030;DHT22;1020;48.854;8.830;2023-09-07T09:10:33;29.50;87.50
2030;DHT22;1020;48.854;8.830;2023-09-07T09:13:00;29.60;86.60
2030;DHT22;1020;48.854;8.830;2023-09-07T09:15:26;29.30;87.50
2030;DHT22;1020;48.854;8.830;2023-09-07T09:17:53;30.30;87.50
2030;DHT22;1020;48.854;8.830;2023-09-07T09:20:21;30.60;84.30
2030;DHT22;1020;48.854;8.830;2023-09-07T09:22:52;31.20;83.40
2030;DHT22;1020;48.854;8.830;2023-09-07T09:25:19;30.90;82.20
2030;DHT22;1020;48.854;8.830;2023-09-07T09:27:46;31.60;81.90
2030;DHT22;1020;48.854;8.830;2023-09-07T09:30:13;32.90;78.00
2030;DHT22;1020;48.854;8.830;2023-09-07T09:32:42;33.00;75.20
2030;DHT22;1020;48.854;8.830;2023-09-07T09:35:09;33.10;71.70
2030;DHT22;1020;48.854;8.830;2023-09-07T09:37:44;32.30;73.70
2030;DHT22;1020;48.854;8.830;2023-09-07T09:40:13;32.50;74.00
2030;DHT22;1020;48.854;8.830;2023-09-07T09:42:42;32.60;72.70
2030;DHT22;1020;48.854;8.830;2023-09-07T09:45:10;30.90;73.80
2030;DHT22;1020;48.854;8.830;2023-09-07T09:47:39;31.20;75.90
2030;DHT22;1020;48.854;8.830;2023-09-07T09:50:07;31.50;74.60
2030;DHT22;1020;48.854;8.830;2023-09-07T09:52:34;32.20;73.20
2030;DHT22;1020;48.854;8.830;2023-09-07T09:55:03;32.70;71.30
2030;DHT22;1020;48.854;8.830;2023-09-07T09:57:35;33.20;69.70
2030;DHT22;1020;48.854;8.830;2023-09-07T10:00:02;33.70;68.00
2030;DHT22;1020;48.854;8.830;2023-09-07T10:02:47;33.90;67.30
2030;DHT22;1020;48.854;8.830;2023-09-07T10:05:15;33.70;65.50
2030;DHT22;1020;48.854;8.830;2023-09-07T10:07:43;33.40;65.70
2030;DHT22;1020;48.854;8.830;2023-09-07T10:10:12;33.30;65.70
2030;DHT22;1020;48.854;8.830;2023-09-07T10:12:41;34.10;65.50
2030;DHT22;1020;48.854;8.830;2023-09-07T10:15:20;33.40;64.10
2030;DHT22;1020;48.854;8.830;2023-09-07T10:17:47;33.00;65.70
2030;DHT22;1020;48.854;8.830;2023-09-07T10:20:16;33.90;65.30
2030;DHT22;1020;48.854;8.830;2023-09-07T10:22:43;34.10;62.50
2030;DHT22;1020;48.854;8.830;2023-09-07T10:25:21;34.40;61.30
2030;DHT22;1020;48.854;8.830;2023-09-07T10:27:49;34.80;61.40
2030;DHT22;1020;48.854;8.830;2023-09-07T10:30:16;34.10;60.60
2030;DHT22;1020;48.854;8.830;2023-09-07T10:32:45;33.50;62.50
2030;DHT22;1020;48.854;8.830;2023-09-07T10:35:14;34.40;60.90
2030;DHT22;1020;48.854;8.830;2023-09-07T10:37:42;34.20;61.10
2030;DHT22;1020;48.854;8.830;2023-09-07T10:40:10;35.10;59.40
2030;DHT22;1020;48.854;8.830;2023-09-07T10:42:38;34.50;57.90
2030;DHT22;1020;48.854;8.830;2023-09-07T10:45:10;34.40;59.40
2030;DHT22;1020;48.854;8.830;2023-09-07T10:47:41;34.50;58.80
2030;DHT22;1020;48.854;8.830;2023-09-07T10:50:09;35.40;58.60
2030;DHT22;1020;48.854;8.830;2023-09-07T10:52:36;35.70;56.40
2030;DHT22;1020;48.854;8.830;2023-09-07T10:55:04;35.90;55.80
2030;DHT22;1020;48.854;8.830;2023-09-07T10:57:31;34.80;56.40
2030;DHT22;1020;48.854;8.830;2023-09-07T10:59:58;34.40;57.30
2030;DHT22;1020;48.854;8.830;2023-09-07T11:02:26;34.30;57.00
2030;DHT22;1020;48.854;8.830;2023-09-07T11:04:53;34.50;56.60
2030;DHT22;1020;48.854;8.830;2023-09-07T11:07:19;35.10;56.10
2030;DHT22;1020;48.854;8.830;2023-09-07T11:09:46;34.00;56.50
2030;DHT22;1020;48.854;8.830;2023-09-07T11:12:20;33.60;57.90
2030;DHT22;1020;48.854;8.830;2023-09-07T11:14:47;33.80;57.80
2030;DHT22;1020;48.854;8.830;2023-09-07T11:17:16;34.50;56.30
2030;DHT22;1020;48.854;8.830;2023-09-07T11:19:44;33.00;57.10
2030;DHT22;1020;48.854;8.830;2023-09-07T11:22:10;32.60;58.70
2030;DHT22;1020;48.854;8.830;2023-09-07T11:24:37;32.80;59.40
2030;DHT22;1020;48.854;8.830;2023-09-07T11:27:04;33.80;58.20
2030;DHT22;1020;48.854;8.830;2023-09-07T11:29:32;34.50;56.90
2030;DHT22;1020;48.854;8.830;2023-09-07T11:32:06;32.90;57.40
2030;DHT22;1020;48.854;8.830;2023-09-07T11:34:33;32.10;59.10
2030;DHT22;1020;48.854;8.830;2023-09-07T11:37:02;32.70;59.60
2030;DHT22;1020;48.854;8.830;2023-09-07T11:39:29;32.80;58.80
2030;DHT22;1020;48.854;8.830;2023-09-07T11:41:56;33.40;57.70
2030;DHT22;1020;48.854;8.830;2023-09-07T11:44:23;32.60;58.30
2030;DHT22;1020;48.854;8.830;2023-09-07T11:46:50;32.80;58.40
2030;DHT22;1020;48.854;8.830;2023-09-07T11:49:18;32.60;59.10
2030;DHT22;1020;48.854;8.830;2023-09-07T11:51:46;32.50;59.00
2030;DHT22;1020;48.854;8.830;2023-09-07T11:54:15;32.80;58.80
2030;DHT22;1020;48.854;8.830;2023-09-07T11:56:41;33.10;58.80
2030;DHT22;1020;48.854;8.830;2023-09-07T11:59:11;32.90;58.50
2030;DHT22;1020;48.854;8.830;2023-09-07T12:01:37;33.40;58.40
2030;DHT22;1020;48.854;8.830;2023-09-07T12:04:05;33.40;57.10
2030;DHT22;1020;48.854;8.830;2023-09-07T12:06:32;32.80;59.10
2030;DHT22;1020;48.854;8.830;2023-09-07T12:09:00;32.90;58.30
2030;DHT22;1020;48.854;8.830;2023-09-07T12:11:28;32.90;57.40
2030;DHT22;1020;48.854;8.830;2023-09-07T12:13:56;32.90;58.10
2030;DHT22;1020;48.854;8.830;2023-09-07T12:16:24;33.50;57.30
2030;DHT22;1020;48.854;8.830;2023-09-07T12:18:51;33.00;58.50
2030;DHT22;1020;48.854;8.830;2023-09-07T12:21:18;33.10;58.30
2030;DHT22;1020;48.854;8.830;2023-09-07T12:23:45;32.90;57.60
2030;DHT22;1020;48.854;8.830;2023-09-07T12:26:12;34.00;57.40
2030;DHT22;1020;48.854;8.830;2023-09-07T12:28:41;34.20;56.90
2030;DHT22;1020;48.854;8.830;2023-09-07T12:31:08;33.70;55.20
2030;DHT22;1020;48.854;8.830;2023-09-07T12:33:35;32.80;57.70
2030;DHT22;1020;48.854;8.830;2023-09-07T12:36:03;33.00;57.80
2030;DHT22;1020;48.854;8.830;2023-09-07T12:38:30;33.70;57.00
2030;DHT22;1020;48.854;8.830;2023-09-07T12:40:57;32.90;56.20
2030;DHT22;1020;48.854;8.830;2023-09-07T12:43:24;32.60;57.60
2030;DHT22;1020;48.854;8.830;2023-09-07T12:45:52;32.80;58.00
2030;DHT22;1020;48.854;8.830;2023-09-07T12:48:19;34.10;58.00
2030;DHT22;1020;48.854;8.830;2023-09-07T12:50:46;35.10;55.40
2030;DHT22;1020;48.854;8.830;2023-09-07T12:53:13;35.70;54.20
2030;DHT22;1020;48.854;8.830;2023-09-07T12:55:40;35.70;52.80
2030;DHT22;1020;48.854;8.830;2023-09-07T12:58:07;34.60;54.10
2030;DHT22;1020;48.854;8.830;2023-09-07T13:00:33;34.90;53.40
2030;DHT22;1020;48.854;8.830;2023-09-07T13:03:02;34.60;52.80
2030;DHT22;1020;48.854;8.830;2023-09-07T13:05:28;34.20;54.20
2030;DHT22;1020;48.854;8.830;2023-09-07T13:07:55;34.60;53.30
2030;DHT22;1020;48.854;8.830;2023-09-07T13:10:24;34.10;53.60
2030;DHT22;1020;48.854;8.830;2023-09-07T13:12:51;33.70;54.40
2030;DHT22;1020;48.854;8.830;2023-09-07T13:15:18;33.50;54.30
2030;DHT22;1020;48.854;8.830;2023-09-07T13:17:44;34.20;53.50
2030;DHT22;1020;48.854;8.830;2023-09-07T13:20:13;33.90;54.10
2030;DHT22;1020;48.854;8.830;2023-09-07T13:22:39;33.70;55.70
2030;DHT22;1020;48.854;8.830;2023-09-07T13:25:07;33.80;54.50
2030;DHT22;1020;48.854;8.830;2023-09-07T13:27:34;34.50;55.00
2030;DHT22;1020;48.854;8.830;2023-09-07T13:30:02;34.80;53.80
2030;DHT22;1020;48.854;8.830;2023-09-07T13:32:29;35.10;54.00
2030;DHT22;1020;48.854;8.830;2023-09-07T13:34:57;35.00;53.50
2030;DHT22;1020;48.854;8.830;2023-09-07T13:37:26;35.10;53.80
2030;DHT22;1020;48.854;8.830;2023-09-07T13:39:52;35.50;53.00
2030;DHT22;1020;48.854;8.830;2023-09-07T13:42:19;35.60;52.00
2030;DHT22;1020;48.854;8.830;2023-09-07T13:44:46;36.00;51.60
2030;DHT22;1020;48.854;8.830;2023-09-07T13:47:15;35.40;50.40
2030;DHT22;1020;48.854;8.830;2023-09-07T13:49:41;35.70;51.80
2030;DHT22;1020;48.854;8.830;2023-09-07T13:52:08;36.10;50.70
2030;DHT22;1020;48.854;8.830;2023-09-07T13:54:36;34.40;49.70
2030;DHT22;1020;48.854;8.830;2023-09-07T13:57:03;36.00;51.10
2030;DHT22;1020;48.854;8.830;2023-09-07T13:59:30;36.10;49.90
2030;DHT22;1020;48.854;8.830;2023-09-07T14:02:00;36.00;49.40
2030;DHT22;1020;48.854;8.830;2023-09-07T14:04:26;35.70;49.70
2030;DHT22;1020;48.854;8.830;2023-09-07T14:06:54;34.60;50.40
2030;DHT22;1020;48.854;8.830;2023-09-07T14:09:21;34.50;50.50
2030;DHT22;1020;48.854;8.830;2023-09-07T14:11:50;34.70;51.20
2030;DHT22;1020;48.854;8.830;2023-09-07T14:14:16;35.00;51.30
2030;DHT22;1020;48.854;8.830;2023-09-07T14:16:43;35.40;50.90
2030;DHT22;1020;48.854;8.830;2023-09-07T14:19:11;35.10;50.30
2030;DHT22;1020;48.854;8.830;2023-09-07T14:21:37;34.80;50.60
2030;DHT22;1020;48.854;8.830;2023-09-07T14:24:04;34.90;50.60
2030;DHT22;1020;48.854;8.830;2023-09-07T14:26:31;35.20;51.00
2030;DHT22;1020;48.854;8.830;2023-09-07T14:28:59;34.30;51.20
2030;DHT22;1020;48.854;8.830;2023-09-07T14:31:26;34.20;51.50
2030;DHT22;1020;48.854;8.830;2023-09-07T14:33:53;34.60;51.10
2030;DHT22;1020;48.854;8.830;2023-09-07T14:36:19;35.00;50.10
2030;DHT22;1020;48.854;8.830;2023-09-07T14:38:46;35.10;50.20
2030;DHT22;1020;48.854;8.830;2023-09-07T14:41:13;35.10;50.50
2030;DHT22;1020;48.854;8.830;2023-09-07T14:43:44;35.10;50.10
2030;DHT22;1020;48.854;8.830;2023-09-07T14:46:12;34.90;50.10
2030;DHT22;1020;48.854;8.830;2023-09-07T14:48:39;35.10;49.90
2030;DHT22;1020;48.854;8.830;2023-09-07T14:51:06;35.30;49.70
2030;DHT22;1020;48.854;8.830;2023-09-07T14:53:33;35.30;49.00
2030;DHT22;1020;48.854;8.830;2023-09-07T14:56:00;34.80;50.00
2030;DHT22;1020;48.854;8.830;2023-09-07T14:58:26;34.40;49.80
2030;DHT22;1020;48.854;8.830;2023-09-07T15:00:53;33.90;51.00
2030;DHT22;1020;48.854;8.830;2023-09-07T15:03:21;33.70;52.30
2030;DHT22;1020;48.854;8.830;2023-09-07T15:05:48;33.70;52.40
2030;DHT22;1020;48.854;8.830;2023-09-07T15:08:15;33.90;51.70
2030;DHT22;1020;48.854;8.830;2023-09-07T15:10:42;33.90;51.30
2030;DHT22;1020;48.854;8.830;2023-09-07T15:13:08;33.90;51.90
2030;DHT22;1020;48.854;8.830;2023-09-07T15:15:35;34.00;51.80
2030;DHT22;1020;48.854;8.830;2023-09-07T15:18:05;33.60;52.70
2030;DHT22;1020;48.854;8.830;2023-09-07T15:20:34;33.30;52.60
2030;DHT22;1020;48.854;8.830;2023-09-07T15:23:00;32.90;53.00
2030;DHT22;1020;48.854;8.830;2023-09-07T15:25:28;33.00;53.60
2030;DHT22;1020;48.854;8.830;2023-09-07T15:27:55;33.00;53.30
2030;DHT22;1020;48.854;8.830;2023-09-07T15:30:23;32.80;53.70
2030;DHT22;1020;48.854;8.830;2023-09-07T15:32:50;32.50;54.00
2030;DHT22;1020;48.854;8.830;2023-09-07T15:35:17;32.30;54.70
2030;DHT22;1020;48.854;8.830;2023-09-07T15:37:45;32.20;54.90
2030;DHT22;1020;48.854;8.830;2023-09-07T15:40:12;32.10;55.00
2030;DHT22;1020;48.854;8.830;2023-09-07T15:42:39;32.30;54.80
2030;DHT22;1020;48.854;8.830;2023-09-07T15:45:07;32.30;55.10
2030;DHT22;1020;48.854;8.830;2023-09-07T15:47:34;32.10;55.20
2030;DHT22;1020;48.854;8.830;2023-09-07T15:50:01;31.80;55.90
2030;DHT22;1020;48.854;8.830;2023-09-07T15:52:27;31.90;55.30
2030;DHT22;1020;48.854;8.830;2023-09-07T15:54:56;31.90;54.90
2030;DHT22;1020;48.854;8.830;2023-09-07T15:57:22;31.60;55.10
2030;DHT22;1020;48.854;8.830;2023-09-07T15:59:49;31.50;55.80
2030;DHT22;1020;48.854;8.830;2023-09-07T16:02:16;31.50;56.20
2030;DHT22;1020;48.854;8.830;2023-09-07T16:04:42;31.20;56.70
2030;DHT22;1020;48.854;8.830;2023-09-07T16:07:09;31.40;56.50